createdAt,value
2019-02-25T00:02:30.254Z,7.23
2019-02-25T00:04:58.957Z,8.17
2019-02-25T00:07:27.987Z,7.47
2019-02-25T00:09:57.567Z,7.10
2019-02-25T00:12:26.294Z,7.37
2019-02-25T00:14:55.313Z,7.87
2019-02-25T00:17:24.110Z,7.10
2019-02-25T00:19:52.821Z,7.03
2019-02-25T00:22:21.581Z,7.40
2019-02-25T00:24:50.291Z,7.70
2019-02-25T00:27:19.151Z,8.30
2019-02-25T00:29:47.929Z,8.53
2019-02-25T00:32:16.669Z,8.13
2019-02-25T00:34:46.123Z,8.27
2019-02-25T00:37:14.961Z,8.17
2019-02-25T00:39:45.502Z,8.17
2019-02-25T00:42:14.613Z,8.43
2019-02-25T00:44:43.749Z,8.23
2019-02-25T00:47:12.531Z,8.00
2019-02-25T00:49:41.239Z,9.43
2019-02-25T00:52:09.972Z,9.40
2019-02-25T00:54:38.786Z,9.27
2019-02-25T00:57:08.978Z,8.50
2019-02-25T00:59:38.002Z,8.43
2019-02-25T01:02:06.876Z,7.80
2019-02-25T01:04:35.563Z,8.87
2019-02-25T01:07:04.585Z,8.63
2019-02-25T01:09:33.382Z,8.17
2019-02-25T01:12:02.109Z,8.80
2019-02-25T01:14:30.864Z,8.80
2019-02-25T01:16:59.594Z,8.77
2019-02-25T01:19:28.337Z,8.33
2019-02-25T01:21:57.031Z,8.10
2019-02-25T01:24:25.765Z,9.77
2019-02-25T01:26:54.549Z,8.40
2019-02-25T01:29:23.269Z,7.90
2019-02-25T01:31:52.009Z,8.10
2019-02-25T01:34:20.730Z,8.03
2019-02-25T01:36:49.489Z,8.20
2019-02-25T01:39:18.193Z,8.07
2019-02-25T01:41:46.943Z,6.87
2019-02-25T01:44:15.681Z,7.60
2019-02-25T01:46:44.393Z,8.90
2019-02-25T01:49:13.101Z,8.20
2019-02-25T01:51:41.837Z,8.30
2019-02-25T01:54:10.566Z,8.67
2019-02-25T01:56:39.307Z,7.67
2019-02-25T01:59:08.090Z,8.60
2019-02-25T02:01:36.839Z,9.37
2019-02-25T02:04:05.617Z,7.83
2019-02-25T02:06:34.345Z,8.73
2019-02-25T02:09:04.223Z,9.13
2019-02-25T02:11:32.985Z,8.17
2019-02-25T02:14:01.733Z,9.00
2019-02-25T02:16:30.471Z,8.53
2019-02-25T02:18:59.216Z,8.67
2019-02-25T02:21:27.938Z,8.60
2019-02-25T02:23:56.692Z,8.90
2019-02-25T02:26:25.441Z,8.90
2019-02-25T02:28:54.195Z,8.90
2019-02-25T02:31:22.955Z,9.07
2019-02-25T02:33:51.671Z,9.33
2019-02-25T02:36:20.431Z,9.30
2019-02-25T02:38:49.137Z,8.63
2019-02-25T02:41:17.850Z,8.93
2019-02-25T02:43:46.578Z,9.67
2019-02-25T02:46:21.917Z,8.63
2019-02-25T02:48:57.522Z,9.27
2019-02-25T02:51:26.245Z,8.40
2019-02-25T02:53:54.986Z,9.03
2019-02-25T02:56:23.717Z,8.83
2019-02-25T02:58:52.462Z,8.67
2019-02-25T03:01:21.169Z,7.90
2019-02-25T03:03:49.963Z,7.73
2019-02-25T03:06:18.770Z,8.77
2019-02-25T03:08:47.508Z,9.00
2019-02-25T03:11:16.296Z,8.43
2019-02-25T03:13:45.008Z,9.27
2019-02-25T03:16:13.847Z,8.73
2019-02-25T03:18:42.573Z,8.90
2019-02-25T03:21:11.426Z,8.93
2019-02-25T03:23:40.161Z,8.00
2019-02-25T03:26:09.034Z,8.00
2019-02-25T03:28:37.782Z,7.73
2019-02-25T03:31:06.510Z,8.00
2019-02-25T03:33:35.258Z,9.33
2019-02-25T03:36:03.974Z,8.50
2019-02-25T03:38:32.713Z,9.10
2019-02-25T03:41:01.449Z,8.40
2019-02-25T03:43:30.185Z,9.07
2019-02-25T03:45:59.026Z,8.57
2019-02-25T03:48:27.767Z,8.63
2019-02-25T03:50:57.152Z,9.27
2019-02-25T03:53:25.865Z,9.90
2019-02-25T03:55:54.695Z,8.80
2019-02-25T03:58:23.589Z,9.10
2019-02-25T04:00:52.493Z,9.53
2019-02-25T04:03:21.375Z,7.67
2019-02-25T04:05:50.160Z,8.60
2019-02-25T04:08:19.042Z,8.60
2019-02-25T04:10:47.793Z,8.50
2019-02-25T04:13:16.506Z,8.43
2019-02-25T04:15:45.819Z,9.00
2019-02-25T04:18:14.601Z,9.07
2019-02-25T04:20:43.315Z,8.07
2019-02-25T04:23:12.014Z,8.17
2019-02-25T04:25:40.785Z,8.97
2019-02-25T04:28:09.579Z,7.77
2019-02-25T04:30:38.454Z,8.67
2019-02-25T04:33:07.222Z,8.50
2019-02-25T04:35:35.934Z,7.77
2019-02-25T04:38:04.670Z,8.80
2019-02-25T04:40:33.429Z,8.33
2019-02-25T04:43:02.260Z,8.87
2019-02-25T04:45:30.990Z,9.20
2019-02-25T04:47:59.733Z,8.40
2019-02-25T04:50:28.458Z,9.43
2019-02-25T04:52:57.170Z,8.50
2019-02-25T04:55:25.892Z,8.77
2019-02-25T04:57:54.629Z,9.03
2019-02-25T05:00:23.565Z,9.33
2019-02-25T05:02:52.380Z,7.70
2019-02-25T05:05:21.105Z,9.00
2019-02-25T05:07:49.862Z,9.27
2019-02-25T05:10:18.983Z,9.03
2019-02-25T05:12:53.797Z,8.53
2019-02-25T05:15:24.242Z,9.47
2019-02-25T05:17:52.949Z,8.40
2019-02-25T05:20:21.683Z,9.03
2019-02-25T05:22:50.417Z,9.10
2019-02-25T05:25:19.177Z,9.23
2019-02-25T05:27:47.954Z,8.83
2019-02-25T05:30:16.854Z,9.10
2019-02-25T05:32:45.631Z,8.53
2019-02-25T05:35:14.523Z,9.03
2019-02-25T05:37:43.271Z,9.03
2019-02-25T05:40:13.804Z,9.73
2019-02-25T05:42:42.558Z,9.63
2019-02-25T05:45:11.482Z,10.03
2019-02-25T05:47:40.211Z,9.50
2019-02-25T05:50:11.337Z,9.53
2019-02-25T05:52:40.074Z,8.93
2019-02-25T05:55:10.666Z,8.83
2019-02-25T05:57:41.057Z,9.03
2019-02-25T06:00:16.729Z,9.17
2019-02-25T06:02:45.577Z,9.07
2019-02-25T06:05:16.062Z,9.13
2019-02-25T06:07:44.821Z,8.87
2019-02-25T06:10:13.642Z,8.70
2019-02-25T06:12:42.365Z,8.13
2019-02-25T06:15:12.230Z,9.13
2019-02-25T06:17:41.012Z,8.90
2019-02-25T06:20:10.490Z,9.00
2019-02-25T06:22:39.236Z,10.07
2019-02-25T06:25:08.388Z,8.77
2019-02-25T06:27:37.282Z,8.37
2019-02-25T06:30:07.119Z,9.47
2019-02-25T06:32:35.865Z,9.30
2019-02-25T06:35:05.593Z,8.87
2019-02-25T06:37:34.311Z,9.10
2019-02-25T06:40:03.186Z,9.13
2019-02-25T06:42:31.916Z,9.77
2019-02-25T06:45:00.675Z,7.83
2019-02-25T06:47:29.413Z,8.90
2019-02-25T06:49:58.186Z,9.20
2019-02-25T06:52:26.905Z,9.20
2019-02-25T06:54:55.623Z,8.50
2019-02-25T06:57:24.361Z,9.10
2019-02-25T06:59:53.101Z,9.63
2019-02-25T07:02:21.825Z,10.30
2019-02-25T07:04:56.354Z,10.03
2019-02-25T07:07:43.298Z,8.30
2019-02-25T07:10:31.121Z,9.43
2019-02-25T07:13:07.794Z,10.90
2019-02-25T07:15:45.912Z,8.90
2019-02-25T07:18:25.025Z,8.80
2019-02-25T07:21:02.698Z,8.43
2019-02-25T07:23:44.235Z,9.13
2019-02-25T07:26:35.082Z,9.50
2019-02-25T07:29:12.730Z,10.17
2019-02-25T07:32:03.573Z,9.40
2019-02-25T07:34:45.727Z,9.83
2019-02-25T07:37:36.869Z,9.13
2019-02-25T07:40:16.344Z,9.53
2019-02-25T07:43:11.166Z,9.73
2019-02-25T07:45:46.489Z,10.90
2019-02-25T07:48:34.295Z,9.77
2019-02-25T07:51:28.035Z,9.93
2019-02-25T07:54:14.997Z,10.23
2019-02-25T07:56:55.685Z,9.93
2019-02-25T07:59:35.837Z,10.27
2019-02-25T08:02:10.979Z,9.53
2019-02-25T08:05:04.445Z,9.33
2019-02-25T08:07:44.809Z,9.57
2019-02-25T08:10:23.714Z,9.63
2019-02-25T08:13:30.032Z,9.50
2019-02-25T08:16:20.483Z,8.83
2019-02-25T08:19:26.534Z,9.43
2019-02-25T08:22:07.129Z,9.60
2019-02-25T08:24:52.905Z,8.63
2019-02-25T08:27:37.725Z,8.03
2019-02-25T08:30:41.545Z,8.77
2019-02-25T08:33:35.574Z,9.07
2019-02-25T08:36:49.210Z,8.67
2019-02-25T08:39:39.926Z,9.07
2019-02-25T08:42:16.281Z,7.63
2019-02-25T08:44:52.737Z,9.43
2019-02-25T08:47:28.705Z,9.60
2019-02-25T08:50:00.350Z,9.33
2019-02-25T08:52:29.062Z,9.23
2019-02-25T08:54:57.863Z,9.10
2019-02-25T08:57:26.573Z,8.83
2019-02-25T08:59:55.441Z,9.23
2019-02-25T09:02:24.205Z,9.67
2019-02-25T09:04:52.944Z,8.50
2019-02-25T09:07:21.768Z,9.43
2019-02-25T09:09:50.522Z,8.93
2019-02-25T09:12:19.350Z,9.17
2019-02-25T09:14:48.115Z,9.23
2019-02-25T09:17:16.851Z,9.63
2019-02-25T09:19:45.581Z,9.33
2019-02-25T09:22:14.376Z,9.37
2019-02-25T09:24:43.213Z,9.87
2019-02-25T09:27:11.957Z,8.43
2019-02-25T09:29:40.718Z,8.33
2019-02-25T09:32:09.479Z,8.63
2019-02-25T09:34:38.198Z,7.67
2019-02-25T09:37:06.949Z,7.93
2019-02-25T09:39:35.698Z,7.47
2019-02-25T09:42:04.800Z,7.90
2019-02-25T09:44:33.561Z,7.23
2019-02-25T09:47:02.291Z,7.77
2019-02-25T09:49:31.028Z,8.30
2019-02-25T09:51:59.813Z,8.67
2019-02-25T09:54:28.536Z,7.57
2019-02-25T09:56:57.257Z,8.47
2019-02-25T09:59:25.964Z,7.83
2019-02-25T10:01:54.691Z,7.63
2019-02-25T10:04:23.409Z,8.43
2019-02-25T10:06:52.143Z,8.63
2019-02-25T10:09:29.505Z,9.57
2019-02-25T10:11:51.329Z,8.60
2019-02-25T10:14:20.131Z,9.00
2019-02-25T10:16:49.074Z,7.13
2019-02-25T10:19:17.800Z,7.60
2019-02-25T10:21:46.622Z,7.40
2019-02-25T10:24:15.454Z,7.93
2019-02-25T10:26:44.261Z,7.23
2019-02-25T10:29:13.004Z,6.73
2019-02-25T10:31:43.708Z,6.93
2019-02-25T10:34:12.345Z,6.73
2019-02-25T10:36:41.157Z,6.50
2019-02-25T10:39:13.128Z,7.40
2019-02-25T10:41:42.190Z,7.43
2019-02-25T10:44:10.925Z,6.47
2019-02-25T10:46:40.781Z,6.90
2019-02-25T10:49:11.515Z,6.80
2019-02-25T10:51:41.722Z,6.00
2019-02-25T10:54:11.198Z,7.30
2019-02-25T10:56:49.811Z,10.00
2019-02-25T10:59:19.783Z,12.57
2019-02-25T11:01:48.508Z,11.90
2019-02-25T11:04:17.957Z,10.60
2019-02-25T11:06:47.753Z,10.40
2019-02-25T11:09:26.574Z,8.87
2019-02-25T11:11:58.005Z,7.77
2019-02-25T11:14:25.992Z,7.30
2019-02-25T11:16:54.761Z,6.73
2019-02-25T11:19:24.906Z,7.17
2019-02-25T11:21:54.053Z,6.27
2019-02-25T11:24:25.227Z,6.67
2019-02-25T11:26:53.321Z,6.80
2019-02-25T11:29:22.169Z,7.03
2019-02-25T11:31:51.607Z,7.63
2019-02-25T11:34:21.416Z,4.80
2019-02-25T11:36:54.941Z,3.80
2019-02-25T11:39:25.252Z,3.77
2019-02-25T11:41:54.249Z,4.57
2019-02-25T11:44:23.412Z,3.60
2019-02-25T11:46:53.385Z,3.60
2019-02-25T11:49:22.120Z,4.40
2019-02-25T11:51:51.010Z,3.70
2019-02-25T11:54:19.728Z,3.90
2019-02-25T11:56:48.548Z,4.20
2019-02-25T11:59:17.358Z,4.10
2019-02-25T12:01:46.093Z,3.87
2019-02-25T12:04:14.864Z,4.13
2019-02-25T12:06:43.597Z,4.20
2019-02-25T12:09:13.671Z,4.20
2019-02-25T12:11:42.457Z,3.87
2019-02-25T12:14:11.332Z,3.40
2019-02-25T12:16:40.255Z,4.07
2019-02-25T12:19:17.605Z,3.67
2019-02-25T12:21:39.499Z,3.57
2019-02-25T12:24:08.229Z,4.30
2019-02-25T12:26:37.046Z,3.85
2019-02-25T12:29:10.777Z,5.20
2019-02-25T12:31:36.310Z,3.77
2019-02-25T12:34:05.221Z,3.47
2019-02-25T12:36:34.016Z,4.03
2019-02-25T12:39:02.945Z,3.45
2019-02-25T12:41:33.042Z,3.92
2019-02-25T12:44:01.808Z,4.00
2019-02-25T12:46:30.514Z,3.63
2019-02-25T12:48:59.254Z,3.60
2019-02-25T12:51:27.977Z,2.83
2019-02-25T12:53:56.713Z,2.90
2019-02-25T12:56:25.465Z,3.08
2019-02-25T12:58:54.186Z,2.80
2019-02-25T13:01:22.889Z,2.45
2019-02-25T13:03:51.614Z,2.75
2019-02-25T13:06:20.324Z,2.90
2019-02-25T13:08:49.126Z,3.15
2019-02-25T13:11:22.192Z,3.30
2019-02-25T13:13:50.938Z,3.30
2019-02-25T13:16:19.678Z,3.42
2019-02-25T13:18:48.520Z,2.77
2019-02-25T13:21:17.343Z,3.50
2019-02-25T13:23:46.366Z,3.33
2019-02-25T13:26:15.085Z,3.17
2019-02-25T13:28:43.856Z,3.00
2019-02-25T13:31:15.509Z,2.95
2019-02-25T13:33:44.309Z,2.98
2019-02-25T13:36:14.489Z,3.00
2019-02-25T13:38:43.299Z,3.65
2019-02-25T13:41:12.159Z,3.77
2019-02-25T13:43:41.562Z,3.62
2019-02-25T13:46:14.134Z,3.42
2019-02-25T13:48:43.620Z,3.67
2019-02-25T13:51:15.683Z,3.42
2019-02-25T13:53:44.453Z,3.47
2019-02-25T13:56:13.429Z,3.33
2019-02-25T13:58:42.145Z,3.15
2019-02-25T14:01:13.379Z,3.50
2019-02-25T14:03:42.178Z,3.80
2019-02-25T14:06:11.141Z,3.85
2019-02-25T14:08:39.858Z,3.70
2019-02-25T14:11:09.071Z,3.65
2019-02-25T14:13:37.882Z,3.30
2019-02-25T14:16:06.654Z,3.37
2019-02-25T14:18:35.445Z,3.80
2019-02-25T14:21:04.446Z,3.75
2019-02-25T14:23:33.149Z,3.37
2019-02-25T14:26:01.979Z,3.90
2019-02-25T14:28:30.790Z,3.02
2019-02-25T14:30:59.674Z,3.47
2019-02-25T14:33:28.439Z,3.17
2019-02-25T14:35:57.438Z,3.33
2019-02-25T14:38:27.579Z,3.98
2019-02-25T14:40:56.930Z,3.42
2019-02-25T14:43:27.450Z,3.50
2019-02-25T14:45:58.687Z,3.98
2019-02-25T14:48:27.849Z,3.67
2019-02-25T14:50:57.554Z,3.40
2019-02-25T14:53:26.252Z,2.92
2019-02-25T14:55:55.998Z,3.05
2019-02-25T14:58:25.695Z,2.90
2019-02-25T15:00:54.418Z,2.65
2019-02-25T15:03:24.798Z,2.72
2019-02-25T15:05:55.009Z,2.47
2019-02-25T15:08:25.734Z,2.50
2019-02-25T15:10:55.532Z,2.35
2019-02-25T15:13:27.903Z,2.50
2019-02-25T15:15:55.731Z,2.50
2019-02-25T15:18:25.262Z,2.85
2019-02-25T15:20:56.469Z,2.70
2019-02-25T15:23:27.491Z,2.90
2019-02-25T15:26:04.800Z,3.02
2019-02-25T15:28:26.772Z,2.90
2019-02-25T15:30:59.735Z,3.17
2019-02-25T15:33:26.923Z,2.83
2019-02-25T15:35:55.629Z,2.67
2019-02-25T15:38:24.437Z,3.62
2019-02-25T15:40:55.856Z,3.47
2019-02-25T15:43:26.370Z,3.60
2019-02-25T15:45:54.469Z,3.70
2019-02-25T15:48:23.276Z,4.22
2019-02-25T15:50:55.587Z,4.12
2019-02-25T15:53:24.458Z,4.60
2019-02-25T15:55:55.343Z,4.70
2019-02-25T15:58:23.673Z,4.20
2019-02-25T16:00:54.914Z,4.03
2019-02-25T16:03:23.947Z,4.37
2019-02-25T16:05:57.197Z,4.37
2019-02-25T16:08:23.772Z,4.30
2019-02-25T16:10:55.743Z,4.58
2019-02-25T16:13:25.169Z,3.87
2019-02-25T16:15:54.155Z,4.12
2019-02-25T16:18:27.754Z,4.35
2019-02-25T16:20:57.569Z,4.08
2019-02-25T16:23:27.858Z,5.08
2019-02-25T16:25:58.313Z,4.72
2019-02-25T16:28:28.544Z,4.35
2019-02-25T16:30:57.509Z,4.50
2019-02-25T16:33:28.183Z,4.33
2019-02-25T16:35:56.971Z,4.22
2019-02-25T16:38:27.337Z,4.83
2019-02-25T16:41:00.773Z,6.25
2019-02-25T16:43:29.684Z,4.65
2019-02-25T16:46:01.825Z,4.97
2019-02-25T16:48:30.830Z,5.45
2019-02-25T16:51:00.606Z,5.70
2019-02-25T16:53:34.568Z,5.75
2019-02-25T16:56:09.481Z,5.30
2019-02-25T16:58:40.326Z,6.57
2019-02-25T17:01:12.580Z,6.23
2019-02-25T17:03:45.931Z,6.27
2019-02-25T17:06:14.643Z,5.40
2019-02-25T17:08:43.677Z,5.73
2019-02-25T17:11:13.023Z,5.55
2019-02-25T17:13:43.162Z,5.50
2019-02-25T17:16:18.073Z,5.57
2019-02-25T17:18:45.965Z,5.47
2019-02-25T17:21:14.153Z,5.40
2019-02-25T17:23:43.165Z,6.00
2019-02-25T17:26:13.067Z,5.43
2019-02-25T17:28:42.765Z,5.20
2019-02-25T17:31:13.755Z,4.90
2019-02-25T17:33:41.966Z,5.37
2019-02-25T17:36:12.399Z,5.00
2019-02-25T17:38:43.698Z,5.17
2019-02-25T17:41:15.801Z,9.67
2019-02-25T17:43:44.644Z,6.83
2019-02-25T17:46:15.320Z,8.87
2019-02-25T17:48:45.976Z,6.90
2019-02-25T17:51:16.200Z,5.80
2019-02-25T17:53:46.090Z,6.73
2019-02-25T17:56:17.918Z,6.60
2019-02-25T17:58:46.785Z,10.17
2019-02-25T18:01:16.946Z,9.73
2019-02-25T18:03:47.778Z,7.73
2019-02-25T18:06:17.002Z,8.60
2019-02-25T18:08:45.746Z,9.77
2019-02-25T18:11:15.752Z,8.77
2019-02-25T18:13:46.644Z,8.10
2019-02-25T18:16:16.796Z,7.50
2019-02-25T18:18:47.836Z,7.20
2019-02-25T18:21:16.894Z,7.00
2019-02-25T18:23:46.859Z,7.10
2019-02-25T18:26:15.723Z,7.80
2019-02-25T18:28:45.888Z,7.23
2019-02-25T18:31:15.106Z,7.27
2019-02-25T18:33:46.794Z,6.50
2019-02-25T18:36:16.121Z,6.33
2019-02-25T18:38:46.375Z,6.40
2019-02-25T18:41:15.711Z,6.40
2019-02-25T18:43:45.034Z,6.27
2019-02-25T18:46:21.086Z,6.17
2019-02-25T18:48:51.221Z,7.70
2019-02-25T18:51:20.337Z,7.17
2019-02-25T18:53:52.766Z,7.60
2019-02-25T18:56:22.863Z,9.33
2019-02-25T18:58:53.394Z,11.50
2019-02-25T19:01:22.567Z,10.73
2019-02-25T19:03:52.679Z,11.00
2019-02-25T19:06:23.492Z,10.53
2019-02-25T19:08:53.842Z,10.53
2019-02-25T19:11:24.097Z,11.37
2019-02-25T19:13:54.285Z,9.87
2019-02-25T19:16:24.529Z,9.37
2019-02-25T19:18:53.466Z,9.80
2019-02-25T19:21:23.325Z,8.87
2019-02-25T19:23:53.053Z,7.77
2019-02-25T19:26:22.043Z,12.20
2019-02-25T19:28:52.490Z,17.10
2019-02-25T19:31:21.337Z,17.10
2019-02-25T19:33:50.200Z,13.20
2019-02-25T19:36:19.192Z,10.53
2019-02-25T19:38:50.278Z,12.73
2019-02-25T19:41:20.650Z,8.80
2019-02-25T19:43:58.719Z,8.60
2019-02-25T19:46:20.458Z,9.80
2019-02-25T19:48:50.145Z,8.23
2019-02-25T19:51:20.633Z,8.13
2019-02-25T19:53:50.705Z,8.83
2019-02-25T19:56:19.507Z,9.00
2019-02-25T19:58:48.318Z,8.93
2019-02-25T20:01:17.029Z,9.73
2019-02-25T20:03:47.669Z,11.47
2019-02-25T20:06:18.551Z,10.00
2019-02-25T20:08:48.625Z,10.00
2019-02-25T20:11:17.471Z,11.53
2019-02-25T20:13:46.205Z,10.80
2019-02-25T20:16:17.990Z,11.40
2019-02-25T20:18:46.039Z,10.90
2019-02-25T20:21:14.933Z,10.70
2019-02-25T20:23:45.404Z,9.23
2019-02-25T20:26:17.735Z,8.07
2019-02-25T20:28:48.757Z,8.43
2019-02-25T20:31:21.541Z,8.53
2019-02-25T20:33:50.887Z,8.17
2019-02-25T20:36:22.083Z,8.13
2019-02-25T20:38:51.209Z,7.40
2019-02-25T20:41:21.897Z,7.33
2019-02-25T20:43:53.922Z,7.20
2019-02-25T20:46:23.879Z,7.40
2019-02-25T20:48:53.103Z,7.47
2019-02-25T20:51:22.736Z,7.70
2019-02-25T20:53:52.962Z,7.70
2019-02-25T20:56:22.471Z,7.47
2019-02-25T20:58:52.596Z,6.83
2019-02-25T21:01:21.506Z,6.03
2019-02-25T21:03:52.204Z,6.50
2019-02-25T21:06:21.253Z,6.83
2019-02-25T21:08:50.272Z,5.33
2019-02-25T21:11:19.010Z,5.90
2019-02-25T21:13:47.893Z,5.63
2019-02-25T21:16:16.659Z,5.73
2019-02-25T21:18:46.589Z,6.83
2019-02-25T21:21:16.294Z,8.30
2019-02-25T21:23:45.506Z,6.60
2019-02-25T21:26:14.394Z,5.93
2019-02-25T21:29:04.260Z,5.50
2019-02-25T21:31:42.781Z,9.67
2019-02-25T21:34:09.410Z,14.13
2019-02-25T21:36:40.159Z,17.27
2019-02-25T21:39:12.253Z,12.53
2019-02-25T21:41:43.013Z,12.20
2019-02-25T21:44:14.349Z,11.10
2019-02-25T21:46:42.084Z,10.30
2019-02-25T21:49:12.396Z,7.47
2019-02-25T21:51:41.638Z,7.47
2019-02-25T21:54:11.872Z,7.57
2019-02-25T21:56:40.805Z,7.17
2019-02-25T21:59:15.095Z,7.20
2019-02-25T22:01:44.987Z,6.67
2019-02-25T22:04:15.540Z,6.43
2019-02-25T22:07:04.343Z,6.63
2019-02-25T22:09:35.385Z,7.13
2019-02-25T22:11:51.461Z,7.67
2019-02-25T22:14:23.276Z,6.07
2019-02-25T22:16:52.691Z,7.43
2019-02-25T22:19:22.543Z,6.70
2019-02-25T22:21:53.575Z,7.50
2019-02-25T22:24:24.757Z,7.50
2019-02-25T22:26:53.647Z,6.37
2019-02-25T22:29:23.297Z,5.93
2019-02-25T22:31:52.749Z,6.10
2019-02-25T22:34:22.968Z,6.47
2019-02-25T22:36:53.453Z,6.50
2019-02-25T22:39:23.404Z,6.23
2019-02-25T22:41:53.117Z,5.97
2019-02-25T22:44:22.601Z,6.63
2019-02-25T22:46:52.441Z,6.67
2019-02-25T22:49:28.185Z,6.50
2019-02-25T22:52:04.960Z,6.77
2019-02-25T22:55:05.982Z,6.10
2019-02-25T22:57:29.619Z,5.57
2019-02-25T22:59:58.837Z,6.37
2019-02-25T23:02:34.786Z,6.43
2019-02-25T23:05:10.600Z,6.03
2019-02-25T23:07:39.262Z,6.77
2019-02-25T23:10:12.874Z,6.70
2019-02-25T23:12:41.717Z,6.33
2019-02-25T23:15:11.313Z,6.13
2019-02-25T23:17:42.359Z,7.30
2019-02-25T23:20:13.577Z,6.17
2019-02-25T23:22:42.453Z,6.00
2019-02-25T23:25:11.639Z,6.20
2019-02-25T23:27:40.441Z,6.70
2019-02-25T23:30:09.351Z,6.60
2019-02-25T23:32:39.359Z,6.47
2019-02-25T23:35:11.454Z,6.63
2019-02-25T23:37:38.941Z,6.00
2019-02-25T23:40:09.574Z,6.07
2019-02-25T23:42:40.109Z,5.97
2019-02-25T23:45:10.616Z,6.10
2019-02-25T23:47:39.984Z,6.47
2019-02-25T23:50:10.992Z,5.70
2019-02-25T23:52:39.369Z,6.17
2019-02-25T23:55:12.230Z,6.23
2019-02-25T23:57:39.356Z,6.23
